createdAt,value
2023-05-05T00:00:27.430Z,11.33
2023-05-05T00:02:56.435Z,11.23
2023-05-05T00:05:25.424Z,11.12
2023-05-05T00:07:54.658Z,11.38
2023-05-05T00:10:22.776Z,11.33
2023-05-05T00:12:51.670Z,11.34
2023-05-05T00:15:19.806Z,11.22
2023-05-05T00:17:52.925Z,11.05
2023-05-05T00:20:21.260Z,11.24
2023-05-05T00:22:49.158Z,11.30
2023-05-05T00:25:18.241Z,11.19
2023-05-05T00:27:46.182Z,11.05
2023-05-05T00:30:14.821Z,11.05
2023-05-05T00:32:43.398Z,11.05
2023-05-05T00:35:12.967Z,10.98
2023-05-05T00:37:40.924Z,10.94
2023-05-05T00:40:10.848Z,10.96
2023-05-05T00:42:42.941Z,11.08
2023-05-05T00:45:12.856Z,11.27
2023-05-05T00:47:42.659Z,11.23
2023-05-05T00:50:23.218Z,11.16
2023-05-05T00:52:52.117Z,11.18
2023-05-05T00:55:20.597Z,11.36
2023-05-05T00:57:50.151Z,10.89
2023-05-05T01:00:19.008Z,11.11
2023-05-05T01:02:47.087Z,11.02
2023-05-05T01:05:18.668Z,10.95
2023-05-05T01:07:56.968Z,11.03
2023-05-05T01:10:33.695Z,11.16
2023-05-05T01:13:15.146Z,11.30
2023-05-05T01:15:47.974Z,11.44
2023-05-05T01:18:25.506Z,11.22
2023-05-05T01:21:03.509Z,11.44
2023-05-05T01:24:02.470Z,11.22
2023-05-05T01:26:49.823Z,11.31
2023-05-05T01:29:39.433Z,11.47
2023-05-05T01:32:14.141Z,11.20
2023-05-05T01:34:47.222Z,11.23
2023-05-05T01:37:21.793Z,11.43
2023-05-05T01:39:54.127Z,11.36
2023-05-05T01:42:26.708Z,11.50
2023-05-05T01:44:55.723Z,11.57
2023-05-05T01:47:25.867Z,11.54
2023-05-05T01:49:56.765Z,11.85
2023-05-05T01:52:25.405Z,11.74
2023-05-05T01:54:55.387Z,11.88
2023-05-05T01:57:26.515Z,11.88
2023-05-05T01:59:57.436Z,11.86
2023-05-05T02:02:29.908Z,11.86
2023-05-05T02:05:00.659Z,11.81
2023-05-05T02:07:48.366Z,11.71
2023-05-05T02:10:19.981Z,11.54
2023-05-05T02:12:49.663Z,11.54
2023-05-05T02:15:18.785Z,11.36
2023-05-05T02:17:49.621Z,11.30
2023-05-05T02:20:20.817Z,11.11
2023-05-05T02:22:49.918Z,11.08
2023-05-05T02:25:18.508Z,10.99
2023-05-05T02:27:49.952Z,11.13
2023-05-05T02:30:21.119Z,10.95
2023-05-05T02:32:55.673Z,10.85
2023-05-05T02:35:33.223Z,11.01
2023-05-05T02:38:06.086Z,11.19
2023-05-05T02:40:41.224Z,11.11
2023-05-05T02:43:13.481Z,10.94
2023-05-05T02:45:41.726Z,10.41
2023-05-05T02:48:13.464Z,10.34
2023-05-05T02:50:42.288Z,10.23
2023-05-05T02:53:17.064Z,10.15
2023-05-05T02:55:52.182Z,10.20
2023-05-05T02:58:30.556Z,10.23
2023-05-05T03:01:10.361Z,10.57
2023-05-05T03:03:45.801Z,10.60
2023-05-05T03:06:20.638Z,10.64
2023-05-05T03:08:56.349Z,10.82
2023-05-05T03:11:33.691Z,10.82
2023-05-05T03:14:08.712Z,10.67
2023-05-05T03:16:39.579Z,10.53
2023-05-05T03:19:13.103Z,10.23
2023-05-05T03:21:43.825Z,10.56
2023-05-05T03:24:16.116Z,10.92
2023-05-05T03:26:50.706Z,11.12
2023-05-05T03:29:22.333Z,10.86
2023-05-05T03:31:51.246Z,10.96
2023-05-05T03:34:20.926Z,11.06
2023-05-05T03:36:50.039Z,11.18
2023-05-05T03:39:19.231Z,11.41
2023-05-05T03:41:48.259Z,11.34
2023-05-05T03:44:17.121Z,11.40
2023-05-05T03:46:46.009Z,11.26
2023-05-05T03:49:15.963Z,11.54
2023-05-05T03:51:48.419Z,11.46
2023-05-05T03:54:16.850Z,11.50
2023-05-05T03:56:45.471Z,11.44
2023-05-05T03:59:13.894Z,11.46
2023-05-05T04:01:41.959Z,11.33
2023-05-05T04:04:10.823Z,11.40
2023-05-05T04:06:39.363Z,11.36
2023-05-05T04:09:08.943Z,11.47
2023-05-05T04:11:38.849Z,11.53
2023-05-05T04:14:08.447Z,11.53
2023-05-05T04:16:36.686Z,11.46
2023-05-05T04:19:05.041Z,11.67
2023-05-05T04:21:34.709Z,11.63
2023-05-05T04:24:02.912Z,11.50
2023-05-05T04:26:33.278Z,11.33
2023-05-05T04:29:01.938Z,11.38
2023-05-05T04:31:30.727Z,11.54
2023-05-05T04:33:58.849Z,11.24
2023-05-05T04:36:27.915Z,11.15
2023-05-05T04:38:55.979Z,11.29
2023-05-05T04:41:25.034Z,11.33
2023-05-05T04:43:55.550Z,11.30
2023-05-05T04:46:23.614Z,11.19
2023-05-05T04:48:51.606Z,11.29
2023-05-05T04:51:20.610Z,11.38
2023-05-05T04:53:48.546Z,11.50
2023-05-05T04:56:16.941Z,11.72
2023-05-05T04:58:45.381Z,11.92
2023-05-05T05:01:14.725Z,12.10
2023-05-05T05:03:43.690Z,12.30
2023-05-05T05:06:12.245Z,12.58
2023-05-05T05:08:40.326Z,12.89
2023-05-05T05:11:08.263Z,13.02
2023-05-05T05:13:37.163Z,13.06
2023-05-05T05:16:05.373Z,13.19
2023-05-05T05:18:36.743Z,13.37
2023-05-05T05:21:05.612Z,13.44
2023-05-05T05:23:34.385Z,13.43
2023-05-05T05:26:05.636Z,13.30
2023-05-05T05:28:34.324Z,13.19
2023-05-05T05:31:03.020Z,13.28
2023-05-05T05:33:32.617Z,13.20
2023-05-05T05:36:01.903Z,13.24
2023-05-05T05:38:30.389Z,12.99
2023-05-05T05:41:06.808Z,13.03
2023-05-05T05:43:36.328Z,12.88
2023-05-05T05:46:08.295Z,13.23
2023-05-05T05:48:40.241Z,13.14
2023-05-05T05:51:09.593Z,12.69
2023-05-05T05:53:37.931Z,12.93
2023-05-05T05:56:10.320Z,13.31
2023-05-05T05:58:39.094Z,13.37
2023-05-05T06:01:07.297Z,13.61
2023-05-05T06:03:36.873Z,13.64
2023-05-05T06:06:05.111Z,13.81
2023-05-05T06:08:35.271Z,13.98
2023-05-05T06:11:03.678Z,14.33
2023-05-05T06:13:32.144Z,14.57
2023-05-05T06:16:00.837Z,14.96
2023-05-05T06:18:29.632Z,15.30
2023-05-05T06:20:57.604Z,15.11
2023-05-05T06:23:28.582Z,15.13
2023-05-05T06:26:03.849Z,15.41
2023-05-05T06:28:31.838Z,15.45
2023-05-05T06:30:59.699Z,15.49
2023-05-05T06:33:28.397Z,15.75
2023-05-05T06:35:56.355Z,15.61
2023-05-05T06:38:24.854Z,15.44
2023-05-05T06:40:53.149Z,15.11
2023-05-05T06:43:22.932Z,14.89
2023-05-05T06:45:56.618Z,14.67
2023-05-05T06:48:25.027Z,14.52
2023-05-05T06:50:52.994Z,14.57
2023-05-05T06:53:21.877Z,14.46
2023-05-05T06:55:49.836Z,14.67
2023-05-05T06:58:18.343Z,14.88
2023-05-05T07:00:48.236Z,14.95
2023-05-05T07:03:16.102Z,15.00
2023-05-05T07:05:44.539Z,15.21
2023-05-05T07:08:12.512Z,15.54
2023-05-05T07:10:40.447Z,15.65
2023-05-05T07:13:09.658Z,15.69
2023-05-05T07:15:37.705Z,15.76
2023-05-05T07:18:07.966Z,16.10
2023-05-05T07:20:35.720Z,16.07
2023-05-05T07:23:03.546Z,16.31
2023-05-05T07:25:32.347Z,16.69
2023-05-05T07:28:00.331Z,17.02
2023-05-05T07:30:28.619Z,17.24
2023-05-05T07:32:57.213Z,17.24
2023-05-05T07:35:26.557Z,17.48
2023-05-05T07:37:54.842Z,17.35
2023-05-05T07:40:23.879Z,17.55
2023-05-05T07:42:51.845Z,17.42
2023-05-05T07:45:19.861Z,17.41
2023-05-05T07:47:48.889Z,17.58
2023-05-05T07:50:17.140Z,17.41
2023-05-05T07:52:51.731Z,17.35
2023-05-05T07:55:25.255Z,17.58
2023-05-05T07:57:53.176Z,17.70
2023-05-05T08:00:21.937Z,17.73
2023-05-05T08:02:50.584Z,17.75
2023-05-05T08:05:18.699Z,18.12
2023-05-05T08:07:48.166Z,17.91
2023-05-05T08:10:17.316Z,18.01
2023-05-05T08:12:45.438Z,18.21
2023-05-05T08:15:13.998Z,18.29
2023-05-05T08:17:47.336Z,18.11
2023-05-05T08:20:15.553Z,18.10
2023-05-05T08:22:43.672Z,18.08
2023-05-05T08:25:14.472Z,18.32
2023-05-05T08:27:43.607Z,18.72
2023-05-05T08:30:13.049Z,18.98
2023-05-05T08:32:41.970Z,18.96
2023-05-05T08:35:10.772Z,18.72
2023-05-05T08:37:39.512Z,18.59
2023-05-05T08:40:09.214Z,18.84
2023-05-05T08:42:39.405Z,18.94
2023-05-05T08:45:11.097Z,19.15
2023-05-05T08:47:39.985Z,19.38
2023-05-05T08:50:12.062Z,18.96
2023-05-05T08:52:44.104Z,19.00
2023-05-05T08:55:25.936Z,19.24
2023-05-05T08:57:57.225Z,19.52
2023-05-05T09:00:27.492Z,19.35
2023-05-05T09:02:57.125Z,19.77
2023-05-05T09:05:26.365Z,20.29
2023-05-05T09:07:55.068Z,20.55
2023-05-05T09:10:23.198Z,20.74
2023-05-05T09:12:51.608Z,20.53
2023-05-05T09:15:21.994Z,20.90
2023-05-05T09:17:49.984Z,20.77
2023-05-05T09:20:18.360Z,20.88
2023-05-05T09:22:48.337Z,20.81
2023-05-05T09:25:17.926Z,20.49
2023-05-05T09:27:50.341Z,20.60
2023-05-05T09:30:24.172Z,20.56
2023-05-05T09:32:55.786Z,20.79
2023-05-05T09:35:24.536Z,21.09
2023-05-05T09:37:52.430Z,20.98
2023-05-05T09:40:22.747Z,20.95
2023-05-05T09:43:02.031Z,20.94
2023-05-05T09:45:31.023Z,20.81
2023-05-05T09:48:00.860Z,20.98
2023-05-05T09:50:33.078Z,21.04
2023-05-05T09:53:03.125Z,21.02
2023-05-05T09:55:32.095Z,21.07
2023-05-05T09:58:19.702Z,20.77
2023-05-05T10:00:47.996Z,20.64
2023-05-05T10:03:17.532Z,20.81
2023-05-05T10:05:52.284Z,21.07
2023-05-05T10:08:23.483Z,21.31
2023-05-05T10:10:53.693Z,21.41
2023-05-05T10:13:23.020Z,21.57
2023-05-05T10:15:52.492Z,21.57
2023-05-05T10:18:26.470Z,21.53
2023-05-05T10:20:58.971Z,21.88
2023-05-05T10:23:34.658Z,21.80
2023-05-05T10:26:04.584Z,21.66
2023-05-05T10:28:35.547Z,21.78
2023-05-05T10:31:12.866Z,21.93
2023-05-05T10:33:55.933Z,22.09
2023-05-05T10:36:25.575Z,21.81
2023-05-05T10:38:57.550Z,21.77
2023-05-05T10:41:26.236Z,21.54
2023-05-05T10:43:56.672Z,21.67
2023-05-05T10:46:26.594Z,21.63
2023-05-05T10:49:03.575Z,22.05
2023-05-05T10:51:45.505Z,22.12
2023-05-05T10:54:20.787Z,22.01
2023-05-05T10:56:51.658Z,21.60
2023-05-05T10:59:41.891Z,22.11
2023-05-05T11:02:24.228Z,22.33
2023-05-05T11:05:10.850Z,22.60
2023-05-05T11:07:40.180Z,22.42
2023-05-05T11:10:09.583Z,22.50
2023-05-05T11:13:19.304Z,22.57
2023-05-05T11:15:47.630Z,22.19
2023-05-05T11:18:37.139Z,22.29
2023-05-05T11:21:16.643Z,21.93
2023-05-05T11:23:47.622Z,22.28
2023-05-05T11:26:16.335Z,22.67
2023-05-05T11:29:00.357Z,21.95
2023-05-05T11:31:29.189Z,22.01
2023-05-05T11:34:30.564Z,22.53
2023-05-05T11:37:03.268Z,22.73
2023-05-05T11:39:45.044Z,23.02
2023-05-05T11:42:28.084Z,22.55
2023-05-05T11:44:57.728Z,22.50
2023-05-05T11:47:30.597Z,22.45
2023-05-05T11:49:59.708Z,22.87
2023-05-05T11:52:29.012Z,23.39
2023-05-05T11:55:04.126Z,23.89
2023-05-05T11:57:32.158Z,23.67
2023-05-05T12:00:01.752Z,23.33
2023-05-05T12:02:33.234Z,24.25
2023-05-05T12:05:02.486Z,24.60
2023-05-05T12:07:33.603Z,24.96
2023-05-05T12:10:02.543Z,25.07
2023-05-05T12:12:38.122Z,25.26
2023-05-05T12:15:08.332Z,25.32
2023-05-05T12:17:40.962Z,25.61
2023-05-05T12:20:11.869Z,25.05
2023-05-05T12:22:41.670Z,24.50
2023-05-05T12:25:11.182Z,24.94
2023-05-05T12:27:39.268Z,24.75
2023-05-05T12:30:16.718Z,24.26
2023-05-05T12:32:46.014Z,24.39
2023-05-05T12:35:16.366Z,24.12
2023-05-05T12:37:45.909Z,23.32
2023-05-05T12:40:45.246Z,23.19
2023-05-05T12:43:25.496Z,23.00
2023-05-05T12:46:09.182Z,22.94
2023-05-05T12:48:39.003Z,23.19
2023-05-05T12:51:20.187Z,23.05
2023-05-05T12:53:50.907Z,23.29
2023-05-05T12:56:33.590Z,23.26
2023-05-05T12:59:02.047Z,23.26
2023-05-05T13:01:30.565Z,23.33
2023-05-05T13:04:13.183Z,23.49
2023-05-05T13:06:42.933Z,23.46
2023-05-05T13:09:24.493Z,23.43
2023-05-05T13:11:52.790Z,23.38
2023-05-05T13:14:20.736Z,23.38
2023-05-05T13:16:52.661Z,23.64
2023-05-05T13:19:20.681Z,23.73
2023-05-05T13:21:48.753Z,23.50
2023-05-05T13:24:31.179Z,23.41
2023-05-05T13:27:04.366Z,23.41
2023-05-05T13:29:33.813Z,23.35
2023-05-05T13:32:01.912Z,23.25
2023-05-05T13:34:29.810Z,22.94
2023-05-05T13:36:58.699Z,23.02
2023-05-05T13:39:28.457Z,22.64
2023-05-05T13:41:56.424Z,22.57
2023-05-05T13:44:24.893Z,22.59
2023-05-05T13:46:53.499Z,22.40
2023-05-05T13:49:22.021Z,22.46
2023-05-05T13:51:50.414Z,21.93
2023-05-05T13:54:18.373Z,22.09
2023-05-05T13:56:47.729Z,21.78
2023-05-05T13:59:16.630Z,21.76
2023-05-05T14:01:44.574Z,21.78
2023-05-05T14:04:13.047Z,22.04
2023-05-05T14:06:41.814Z,22.15
2023-05-05T14:09:09.856Z,21.91
2023-05-05T14:11:37.752Z,21.80
2023-05-05T14:14:08.312Z,21.66
2023-05-05T14:16:36.477Z,21.56
2023-05-05T14:19:04.941Z,21.45
2023-05-05T14:21:33.605Z,21.41
2023-05-05T14:24:01.513Z,21.18
2023-05-05T14:26:30.426Z,21.07
2023-05-05T14:28:58.340Z,20.85
2023-05-05T14:31:29.075Z,20.38
2023-05-05T14:33:58.076Z,20.01
2023-05-05T14:36:26.856Z,19.38
2023-05-05T14:38:55.939Z,18.93
2023-05-05T14:41:23.921Z,18.51
2023-05-05T14:43:52.294Z,18.17
2023-05-05T14:46:21.014Z,17.21
2023-05-05T14:48:51.165Z,15.41
2023-05-05T14:51:19.870Z,15.00
2023-05-05T14:53:48.224Z,14.88
2023-05-05T14:56:16.189Z,14.73
2023-05-05T14:58:44.514Z,14.49
2023-05-05T15:01:13.366Z,14.48
2023-05-05T15:03:43.185Z,14.51
2023-05-05T15:06:13.044Z,14.46
2023-05-05T15:08:40.876Z,14.31
2023-05-05T15:11:08.852Z,14.42
2023-05-05T15:13:39.065Z,14.45
2023-05-05T15:16:07.863Z,14.61
2023-05-05T15:18:35.885Z,14.72
2023-05-05T15:21:05.174Z,14.79
2023-05-05T15:23:34.762Z,14.99
2023-05-05T15:26:03.306Z,15.08
2023-05-05T15:28:31.714Z,15.30
2023-05-05T15:31:01.830Z,15.41
2023-05-05T15:33:31.939Z,15.49
2023-05-05T15:36:00.438Z,15.78
2023-05-05T15:38:29.318Z,15.72
2023-05-05T15:40:59.079Z,15.78
2023-05-05T15:43:28.236Z,15.92
2023-05-05T15:45:56.193Z,16.07
2023-05-05T15:48:25.214Z,15.68
2023-05-05T15:50:53.149Z,15.54
2023-05-05T15:53:22.977Z,15.73
2023-05-05T15:55:51.020Z,15.55
2023-05-05T15:58:20.849Z,15.70
2023-05-05T16:00:49.723Z,15.59
2023-05-05T16:03:17.838Z,15.70
2023-05-05T16:05:47.158Z,15.44
2023-05-05T16:08:17.224Z,15.26
2023-05-05T16:10:45.224Z,15.16
2023-05-05T16:13:14.560Z,15.26
2023-05-05T16:15:44.689Z,15.21
2023-05-05T16:18:13.150Z,15.17
2023-05-05T16:20:41.716Z,15.11
2023-05-05T16:23:09.737Z,15.23
2023-05-05T16:25:37.757Z,15.20
2023-05-05T16:28:06.719Z,15.08
2023-05-05T16:30:35.368Z,15.02
2023-05-05T16:33:07.168Z,15.10
2023-05-05T16:35:36.234Z,15.11
2023-05-05T16:38:04.202Z,14.86
2023-05-05T16:40:33.079Z,14.82
2023-05-05T16:43:01.028Z,14.80
2023-05-05T16:45:29.897Z,14.73
2023-05-05T16:47:57.896Z,14.65
2023-05-05T16:50:27.730Z,14.61
2023-05-05T16:52:56.590Z,14.28
2023-05-05T16:55:25.832Z,14.27
2023-05-05T16:57:54.734Z,14.18
2023-05-05T17:00:22.641Z,14.16
2023-05-05T17:02:51.168Z,14.10
2023-05-05T17:05:19.653Z,14.24
2023-05-05T17:07:49.208Z,14.13
2023-05-05T17:10:17.505Z,14.16
2023-05-05T17:12:45.803Z,14.06
2023-05-05T17:15:13.778Z,14.00
2023-05-05T17:17:43.049Z,13.82
2023-05-05T17:20:12.664Z,13.76
2023-05-05T17:22:40.649Z,13.85
2023-05-05T17:25:11.670Z,13.96
2023-05-05T17:27:40.701Z,13.81
2023-05-05T17:30:10.517Z,13.79
2023-05-05T17:32:38.583Z,13.75
2023-05-05T17:35:07.742Z,13.74
2023-05-05T17:37:37.108Z,13.87
2023-05-05T17:40:05.961Z,13.99
2023-05-05T17:42:36.660Z,13.92
2023-05-05T17:45:05.239Z,13.85
2023-05-05T17:47:33.197Z,13.81
2023-05-05T17:50:02.330Z,13.75
2023-05-05T17:52:30.345Z,13.71
2023-05-05T17:54:58.990Z,13.75
2023-05-05T17:57:27.379Z,13.47
2023-05-05T17:59:56.925Z,13.51
2023-05-05T18:02:25.257Z,13.57
2023-05-05T18:04:54.233Z,13.74
2023-05-05T18:07:22.160Z,13.66
2023-05-05T18:09:50.802Z,13.58
2023-05-05T18:12:19.188Z,13.58
2023-05-05T18:14:47.193Z,13.66
2023-05-05T18:17:19.598Z,13.69
2023-05-05T18:19:49.132Z,13.79
2023-05-05T18:22:17.498Z,13.89
2023-05-05T18:24:47.467Z,13.81
2023-05-05T18:27:15.558Z,13.57
2023-05-05T18:29:44.084Z,13.65
2023-05-05T18:32:12.584Z,13.71
2023-05-05T18:34:41.926Z,13.82
2023-05-05T18:37:11.072Z,13.82
2023-05-05T18:39:39.201Z,13.57
2023-05-05T18:42:07.948Z,13.47
2023-05-05T18:44:36.344Z,13.33
2023-05-05T18:47:04.370Z,13.44
2023-05-05T18:49:32.223Z,13.41
2023-05-05T18:52:02.463Z,13.38
2023-05-05T18:54:30.875Z,13.34
2023-05-05T18:56:59.270Z,13.31
2023-05-05T18:59:27.363Z,13.24
2023-05-05T19:01:56.212Z,13.21
2023-05-05T19:04:30.682Z,13.24
2023-05-05T19:07:01.734Z,13.24
2023-05-05T19:09:30.129Z,13.23
2023-05-05T19:11:58.059Z,13.19
2023-05-05T19:14:25.930Z,13.24
2023-05-05T19:16:56.311Z,13.14
2023-05-05T19:19:24.811Z,13.09
2023-05-05T19:21:53.231Z,13.09
2023-05-05T19:24:22.456Z,13.19
2023-05-05T19:26:50.782Z,13.23
2023-05-05T19:29:18.826Z,13.14
2023-05-05T19:31:46.867Z,13.10
2023-05-05T19:34:15.323Z,13.13
2023-05-05T19:36:43.665Z,13.30
2023-05-05T19:39:13.031Z,13.26
2023-05-05T19:41:43.906Z,13.03
2023-05-05T19:44:11.847Z,12.96
2023-05-05T19:46:40.397Z,13.03
2023-05-05T19:49:08.816Z,12.81
2023-05-05T19:51:36.752Z,12.54
2023-05-05T19:54:05.345Z,12.69
2023-05-05T19:56:33.321Z,12.71
2023-05-05T19:59:05.742Z,12.74
2023-05-05T20:01:34.077Z,12.69
2023-05-05T20:04:03.385Z,12.69
2023-05-05T20:06:32.445Z,12.64
2023-05-05T20:09:00.794Z,12.68
2023-05-05T20:11:29.360Z,12.67
2023-05-05T20:13:58.235Z,12.64
2023-05-05T20:16:27.570Z,12.64
2023-05-05T20:18:56.051Z,12.41
2023-05-05T20:21:24.491Z,12.50
2023-05-05T20:23:54.519Z,12.38
2023-05-05T20:26:26.320Z,12.40
2023-05-05T20:28:54.310Z,12.15
2023-05-05T20:31:22.285Z,12.37
2023-05-05T20:33:52.527Z,12.13
2023-05-05T20:36:20.528Z,12.16
2023-05-05T20:38:48.974Z,12.06
2023-05-05T20:41:17.313Z,11.88
2023-05-05T20:43:45.313Z,11.89
2023-05-05T20:46:14.145Z,11.92
2023-05-05T20:48:43.252Z,12.08
2023-05-05T20:51:12.552Z,12.33
2023-05-05T20:53:41.648Z,12.38
2023-05-05T20:56:09.543Z,12.44
2023-05-05T20:58:39.010Z,12.45
2023-05-05T21:01:07.409Z,12.60
2023-05-05T21:03:35.368Z,12.48
2023-05-05T21:06:03.746Z,12.47
2023-05-05T21:08:33.486Z,12.38
2023-05-05T21:11:01.549Z,12.40
2023-05-05T21:13:29.438Z,12.37
2023-05-05T21:15:58.252Z,12.32
2023-05-05T21:18:27.613Z,12.27
2023-05-05T21:20:56.659Z,12.17
2023-05-05T21:23:24.585Z,12.13
2023-05-05T21:25:54.311Z,12.17
2023-05-05T21:28:22.629Z,12.15
2023-05-05T21:31:10.134Z,12.08
2023-05-05T21:33:40.303Z,12.00
2023-05-05T21:36:08.387Z,11.88
2023-05-05T21:38:36.751Z,11.83
2023-05-05T21:41:06.792Z,11.95
2023-05-05T21:43:34.755Z,11.98
2023-05-05T21:46:04.098Z,11.98
2023-05-05T21:48:32.604Z,12.02
2023-05-05T21:51:00.998Z,12.03
2023-05-05T21:53:29.947Z,12.17
2023-05-05T21:55:57.876Z,12.20
2023-05-05T21:58:28.357Z,12.24
2023-05-05T22:00:56.470Z,12.24
2023-05-05T22:03:26.103Z,12.38
2023-05-05T22:05:55.164Z,12.34
2023-05-05T22:08:23.183Z,12.33
2023-05-05T22:10:52.673Z,12.32
2023-05-05T22:13:20.769Z,12.37
2023-05-05T22:15:50.263Z,12.44
2023-05-05T22:18:18.756Z,12.55
2023-05-05T22:20:46.914Z,12.51
2023-05-05T22:23:16.673Z,12.51
2023-05-05T22:25:45.426Z,12.52
2023-05-05T22:28:13.387Z,12.45
2023-05-05T22:30:42.437Z,12.48
2023-05-05T22:33:11.814Z,12.58
2023-05-05T22:35:41.014Z,12.60
2023-05-05T22:38:09.437Z,12.58
2023-05-05T22:40:37.424Z,12.60
2023-05-05T22:43:05.570Z,12.43
2023-05-05T22:45:34.822Z,12.57
2023-05-05T22:48:03.338Z,12.50
2023-05-05T22:50:32.788Z,12.50
2023-05-05T22:53:01.153Z,12.47
2023-05-05T22:55:30.046Z,12.45
2023-05-05T22:57:57.937Z,12.50
2023-05-05T23:00:27.174Z,12.47
2023-05-05T23:02:55.289Z,12.47
2023-05-05T23:05:23.762Z,12.43
2023-05-05T23:07:53.679Z,12.41
2023-05-05T23:10:21.465Z,12.36
2023-05-05T23:12:49.470Z,12.30
2023-05-05T23:15:18.637Z,12.26
2023-05-05T23:17:46.631Z,12.20
2023-05-05T23:20:15.261Z,12.12
2023-05-05T23:22:43.861Z,12.17
2023-05-05T23:25:13.256Z,12.02
2023-05-05T23:27:41.979Z,12.10
2023-05-05T23:30:11.739Z,12.12
2023-05-05T23:32:39.768Z,12.16
2023-05-05T23:35:09.792Z,12.00
2023-05-05T23:37:37.928Z,12.10
2023-05-05T23:40:07.926Z,11.96
2023-05-05T23:42:38.431Z,11.93
2023-05-05T23:45:07.183Z,11.98
2023-05-05T23:47:35.710Z,12.12
2023-05-05T23:50:04.130Z,12.15
2023-05-05T23:52:32.542Z,12.16
2023-05-05T23:55:01.517Z,12.16
2023-05-05T23:57:29.896Z,12.22
